Flight Track Log - Related Links

Times and Time Zones

All times are in EDT time to prevent confusion due to time zone crossing. See the EJA727 flight status page for this flight to view local times or setup timezone preferences in your user account.

Time Position Orientation Groundspeed Altitude Reporting Facility
EDT Latitude Longitude Course Direction KTS MPH feet Rate Location/Type
Sun 12:07:02 PM 42.3833 -87.8333 147° Southeast 233 268 5,000  Level Chicago TRACON
Sun 12:07:20 PM 42.3717 -87.8589 238° Southwest 244 281 5,900 2,925 Climbing Chicago Center
Sun 12:08:22 PM 42.3067 -87.9300 219° Southwest 279 321 8,900 2,468 Climbing Chicago Center
Sun 12:09:24 PM 42.2464 -88.0003 221° Southwest 288 331 11,000 2,081 Climbing Chicago Center
Sun 12:10:26 PM 42.1803 -88.0736 219° Southwest 307 353 13,200 2,146 Climbing Chicago Center
Sun 12:11:27 PM 42.1053 -88.1561 219° Southwest 358 412 15,400 2,341 Climbing Chicago Center
Sun 12:12:29 PM 42.0333 -88.2706 230° Southwest 402 463 18,000 2,952 Climbing Chicago Center
Sun 12:13:31 PM 41.9531 -88.4236 235° Southwest 419 482 21,500 2,323 Climbing Chicago Center
Sun 12:14:33 PM 41.8925 -88.5700 241° Southwest 456 525 22,800 1,306 Climbing Chicago Center
Sun 12:15:35 PM 41.8808 -88.7475 265° West 486 559 24,200 1,403 Climbing Chicago Center
Sun 12:16:37 PM 41.8767 -88.9289 268° West 491 565 25,700 1,452 Climbing Chicago Center
Sun 12:17:39 PM 41.8708 -89.1106 268° West 491 565 27,200 1,597 Climbing Chicago Center
Sun 12:18:41 PM 41.8631 -89.3286 267° West 493 567 29,000 1,548 Climbing Chicago Center
Sun 12:19:43 PM 41.8572 -89.5072 268° West 487 560 30,400 1,452 Climbing Chicago Center
Sun 12:20:45 PM 41.8500 -89.6878 267° West 487 560 32,000 1,452 Climbing Chicago Center
Sun 12:21:47 PM 41.8439 -89.8664 267° West 484 557 33,400 1,355 Climbing Chicago Center
Sun 12:22:49 PM 41.8364 -90.0456 267° West 485 558 34,800 1,161 Climbing Chicago Center
Sun 12:23:51 PM 41.8297 -90.2267 267° West 489 563 35,800 581 Climbing Chicago Center
Sun 12:24:53 PM 41.8197 -90.4425 267° West 488 562 36,000 97 Climbing Chicago Center
Sun 12:25:55 PM 41.8108 -90.6153 266° West 476 548 36,000  Level Chicago Center
Sun 12:26:56 PM 41.8028 -90.7861 266° West 466 536 36,000  Level Chicago Center
Sun 12:27:58 PM 41.7950 -90.9564 267° West 461 531 36,000  Level Chicago Center
Sun 12:29:00 PM 41.7858 -91.1292 266° West 467 537 36,000  Level Chicago Center
Sun 12:30:02 PM 41.7753 -91.3394 266° West 473 544 36,000  Level Chicago Center
Sun 12:31:04 PM 41.7658 -91.5147 266° West 474 545 36,000  Level Chicago Center
Sun 12:32:06 PM 41.7561 -91.6900 266° West 474 545 36,000  Level Chicago Center
Sun 12:33:08 PM 41.7461 -91.8658 266° West 477 549 36,000  Level Chicago Center
Sun 12:34:10 PM 41.7364 -92.0422 266° West 478 550 36,000  Level Chicago Center
Sun 12:35:12 PM 41.7256 -92.2164 265° West 474 545 36,000  Level Chicago Center
Sun 12:36:15 PM 41.7131 -92.4256 265° West 472 543 36,000  Level Chicago Center
Sun 12:37:17 PM 41.7019 -92.5978 265° West 469 540 36,000 -242 Level Chicago Center
Sun 12:38:19 PM 41.6917 -92.7561 265° West 471 542 35,500 -968 Descending Chicago Center
Sun 12:39:21 PM 41.6772 -92.9656 265° West 476 548 34,000 -744 Descending Chicago Center
Sun 12:40:20 PM 41.6664 -93.1389 265° West 473 544 34,000  Level Minneapolis Center
Sun 12:41:22 PM 41.6553 -93.3069 265° West 464 534 34,000  Level Minneapolis Center
Sun 12:42:24 PM 41.6428 -93.4736 264° West 458 527 34,000  Level Minneapolis Center
Sun 12:43:26 PM 41.6314 -93.6450 265° West 464 534 34,000  Level Minneapolis Center
Sun 12:44:28 PM 41.6200 -93.8203 265° West 475 547 34,000  Level Minneapolis Center
Sun 12:45:42 PM 41.6036 -94.0281 264° West 474 545 34,000 -971 Level Minneapolis Center
Sun 12:46:44 PM 41.5864 -94.2289 264° West 473 544 31,800 -2,468 Descending Minneapolis Center
Sun 12:47:46 PM 41.5722 -94.4000 264° West 464 534 28,900 -3,097 Descending Minneapolis Center
Sun 12:48:48 PM 41.5556 -94.6011 264° West 455 524 25,400 -3,145 Descending Minneapolis Center
Sun 12:49:50 PM 41.5436 -94.7689 265° West 454 522 22,400 -2,855 Descending Minneapolis Center
Sun 12:50:52 PM 41.5286 -94.9308 263° West 444 511 19,500 -2,371 Descending Minneapolis Center
Sun 12:51:54 PM 41.5172 -95.0814 264° West 419 482 17,500 -1,606 Descending Minneapolis Center
Sun 12:52:59 PM 41.4939 -95.2533 260° West 382 440 16,100 -1,680 Descending Minneapolis Center
Sun 12:53:59 PM 41.4275 -95.3508 228° Southwest 352 405 14,000 -2,132 Descending Minneapolis Center
Sun 12:55:00 PM 41.3650 -95.4447 228° Southwest 326 375 11,800 -2,177 Descending Minneapolis Center
Sun 12:56:03 PM 41.3000 -95.5275 224° Southwest 331 381 9,500 -2,231 Descending Minneapolis Center
Sun 12:57:01 PM 41.2461 -95.6008 226° Southwest 288 331 7,300 -1,951 Descending Minneapolis Center
Sun 12:58:06 PM 41.1933 -95.6561 218° Southwest 297 342 5,500 -2,139 Descending Minneapolis Center
Sun 12:58:56 PM 41.1467 -95.7400 234° Southwest 276 318 3,200 -1,351 Descending Minneapolis Center
Sun 12:59:57 PM 41.1878 -95.7906 317° Northwest 186 214 3,000 -246 Descending Minneapolis Center
Sun 01:00:58 PM 41.2275 -95.8219 329° Northwest 154 177 2,700 -395 Descending Minneapolis Center
Sun 01:01:13 PM 41.2319 -95.8219 360° North 186 214 2,500 -900 Descending Minneapolis Center
Sun 01:01:58 PM 41.2633 -95.8539 323° Northwest 135 155 1,800 -774 Descending Minneapolis Center
Sun 01:02:15 PM 41.2650 -95.8547 339° North 165 190 1,700 -684 Descending Minneapolis Center
Sun 01:03:17 PM 41.3000 -95.8886 324° Northwest 145 167 900 -774 Descending Minneapolis Center
Sun 01:05:00 PM 41.3032 -95.8941 145° Southeast  Level Estimated

Login

Don't have an account? Register now (free) for customized features, flight alerts, and more!